Keswick, IA

2:28 AM CDT on July 25, 2014 (GMT -0500)
Dietze Weather Station (KIAMILLE3) Elev 883 ft | 41.57 °N, 92.16 °W | Change Station

Current weather conditions updated 0 second ago

Clear
Clear
64.1 °F
Feels Like 64.1 °F
N
3.4
Wind Variable Wind from East
Gusts 5.6 mph

Today is forecast to be Warmer than yesterday. A few morning showers.

Today
High -- | Low -- °F
--% Chance of Precip.
Yesterday
High -- | Low -- °F
Precip. -- in
5:57 AM 8:33 PM
Waning Crescent, 2% visible
Pressure 29.96 in
Visibility 10.0 miles
Clouds Clear
Dew Point 58 °F
Humidity 82%
Rainfall 0.00 in
Snow Depth Not available.
UV 0 out of 12
Pollen 5.50 out of 12
Air Quality Not available.
Flu Activity Not available.
METAR KOOA 250715Z AUTO 14009KT 10SM CLR 17/15 A2996 RMK AO2 T01690148

More Conditions Fewer Conditions

Pressure 29.96 in
Visibility 10.0 miles
Clouds Clear
Dew Point 58 °F
Humidity 82%
Rainfall 0.00 in
Snow Depth Not available.
UV 0 out of 12
Pollen 5.50 out of 12
Air Quality Not available.
Flu Activity Not available.
METAR KOOA 250715Z AUTO 14009KT 10SM CLR 17/15 A2996 RMK AO2 T01690148

More Conditions Fewer Conditions

10-Day Weather Forecast

Almanac

Astronomy

Jul. 25, 2014 Rise Set
Actual Time 5:57 AM CDT 8:33 PM CDT
Civil Twilight 5:25 AM CDT 9:05 PM CDT
Nautical Twilight 4:45 AM CDT 9:44 PM CDT
Astronomical Twilight 4:00 AM CDT 10:29 PM CDT
Moon 4:57 AM CDT 7:29 PM CDT
Length of Visible Light 15h 40m
Length of Day
14h 36m
Tomorrow will be 1m 53s shorter.
Waning Crescent, 2% of the Moon is Illuminated
Today
Waning Crescent
Jul 26
New
Aug 3
First Quarter
Aug 10
Full
Aug 17
Last Quarter

Today's Extremes

State Highs State Lows

Community

WunderPhotos

Upload Photos

1,737,272 photos uploaded!

Nearby

Snow Depth

Station Depth Elevation
No new snow has been reported.

Earthquake Activity

City Distance Mag. Time & Date
No recent earthquake activity has been reported nearby.
Minimum magnitude displayed is 2.5.

Coastal Water Temperatures

Place Temperature
No Stations Reporting

Nearby Weather Stations

Station Location Temp. Dew Point Humidity Wind Precip. Elev Updated Type
Dietze Weather Station, Millersburg, IA 64.1 °F 58 °F 82% East  at  3.4 mph 0.00 in / hr 883 ft 2:28 AM CDT Rapid Fire
Williamsburg South, Williamsburg, IA 63.1 °F 58 °F 85% South  at  4.2 mph 0.00 in / hr 879 ft 2:28 AM CDT Rapid Fire
Williamsburg, IA 63.9 °F 54 °F 70% East  at  3.0 mph 0.00 in / hr 820 ft 2:28 AM CDT Rapid Fire
Oskaloosa, IA 63.8 °F 58 °F 80% North  at  0.0 mph 0.00 in / hr 846 ft 2:28 AM CDT Rapid Fire

Show More Stations Show Fewer Stations